Terminal Aerodrome Forecast
Issued by NWS Bismarck, ND

Home | Current Version | Previous Version | Graphics & Text | Print | Product List | Glossary On
Versions: 1 2 3 4 5 6 7 8 9 10 11 12 13 14 15 16 17 18 19 20 21 22 23 24 25
000
FTUS43 KBIS 131532 AAB
TAFBIS
TAF AMD
KBIS 131532Z 1316/1412 32017G23KT P6SM OVC018
      TEMPO 1316/1319 OVC022
     FM131900 32018G26KT P6SM OVC025
     FM140000 32012KT P6SM OVC030
     FM140800 32010KT 3SM -SN BR OVC015=

USA.gov is the U.S. government's official web portal to all federal, state and local government web resources and services.